sensor_id;sensor_type;location;lat;lon;timestamp;pressure;altitude;pressure_sealevel;temperature;humidity
66176;BME280;52977;44.816;20.538;2023-04-30T00:00:05;99456.78;;;15.54;60.53
66176;BME280;52977;44.816;20.538;2023-04-30T00:02:35;99498.94;;;15.78;61.47
66176;BME280;52977;44.816;20.538;2023-04-30T00:05:01;99499.84;;;15.66;61.48
66176;BME280;52977;44.816;20.538;2023-04-30T00:07:26;99485.09;;;15.55;61.88
66176;BME280;52977;44.816;20.538;2023-04-30T00:09:52;99493.41;;;15.59;63.20
66176;BME280;52977;44.816;20.538;2023-04-30T00:12:17;99411.13;;;14.95;63.53
66176;BME280;52977;44.816;20.538;2023-04-30T00:14:43;99495.47;;;15.46;63.20
66176;BME280;52977;44.816;20.538;2023-04-30T00:17:09;99483.94;;;15.20;63.38
66176;BME280;52977;44.816;20.538;2023-04-30T00:19:35;99500.59;;;15.28;63.19
66176;BME280;52977;44.816;20.538;2023-04-30T00:22:01;99476.69;;;15.12;63.58
66176;BME280;52977;44.816;20.538;2023-04-30T00:24:28;99491.41;;;15.04;64.55
66176;BME280;52977;44.816;20.538;2023-04-30T00:26:54;99484.81;;;15.25;64.33
66176;BME280;52977;44.816;20.538;2023-04-30T00:29:19;99466.19;;;15.18;63.91
66176;BME280;52977;44.816;20.538;2023-04-30T00:31:45;99476.03;;;15.35;63.51
66176;BME280;52977;44.816;20.538;2023-04-30T00:34:11;99459.78;;;15.30;63.20
66176;BME280;52977;44.816;20.538;2023-04-30T00:36:37;99487.19;;;15.62;63.08
66176;BME280;52977;44.816;20.538;2023-04-30T00:39:05;99484.94;;;15.67;62.40
66176;BME280;52977;44.816;20.538;2023-04-30T00:41:31;99479.50;;;15.71;61.91
66176;BME280;52977;44.816;20.538;2023-04-30T00:43:57;99455.31;;;15.61;61.37
66176;BME280;52977;44.816;20.538;2023-04-30T00:46:23;99474.81;;;15.71;60.91
66176;BME280;52977;44.816;20.538;2023-04-30T00:48:48;99492.88;;;15.72;61.82
66176;BME280;52977;44.816;20.538;2023-04-30T00:51:15;99486.09;;;15.47;61.96
66176;BME280;52977;44.816;20.538;2023-04-30T00:53:42;99449.28;;;15.16;62.68
66176;BME280;52977;44.816;20.538;2023-04-30T00:56:09;99490.13;;;15.53;62.71
66176;BME280;52977;44.816;20.538;2023-04-30T00:58:35;99471.69;;;15.53;62.90
66176;BME280;52977;44.816;20.538;2023-04-30T01:01:02;99463.00;;;15.51;62.85
66176;BME280;52977;44.816;20.538;2023-04-30T01:03:28;99450.25;;;15.43;62.68
66176;BME280;52977;44.816;20.538;2023-04-30T01:05:53;99434.78;;;15.35;62.80
66176;BME280;52977;44.816;20.538;2023-04-30T01:08:20;99447.31;;;15.52;62.44
66176;BME280;52977;44.816;20.538;2023-04-30T01:11:16;99480.44;;;15.79;62.01
66176;BME280;52977;44.816;20.538;2023-04-30T01:13:57;99489.16;;;15.81;61.21
66176;BME280;52977;44.816;20.538;2023-04-30T01:16:31;99488.81;;;15.82;60.73
66176;BME280;52977;44.816;20.538;2023-04-30T01:21:47;99489.56;;;15.44;63.26
66176;BME280;52977;44.816;20.538;2023-04-30T01:24:52;99475.81;;;15.44;63.93
66176;BME280;52977;44.816;20.538;2023-04-30T01:27:31;99446.97;;;15.18;64.54
66176;BME280;52977;44.816;20.538;2023-04-30T01:30:05;99485.28;;;15.46;64.91
66176;BME280;52977;44.816;20.538;2023-04-30T01:32:32;99462.81;;;15.25;65.77
66176;BME280;52977;44.816;20.538;2023-04-30T01:34:57;99494.78;;;15.49;65.85
66176;BME280;52977;44.816;20.538;2023-04-30T01:37:51;99467.91;;;15.23;65.87
66176;BME280;52977;44.816;20.538;2023-04-30T01:43:09;99484.66;;;15.17;66.31
66176;BME280;52977;44.816;20.538;2023-04-30T01:46:17;99498.97;;;15.07;67.40
66176;BME280;52977;44.816;20.538;2023-04-30T01:48:59;99494.47;;;14.99;67.75
66176;BME280;52977;44.816;20.538;2023-04-30T01:51:39;99494.69;;;15.10;68.06
66176;BME280;52977;44.816;20.538;2023-04-30T01:54:32;99483.34;;;15.11;68.66
66176;BME280;52977;44.816;20.538;2023-04-30T01:57:05;99490.94;;;15.18;68.47
66176;BME280;52977;44.816;20.538;2023-04-30T01:59:35;99504.34;;;15.19;68.89
66176;BME280;52977;44.816;20.538;2023-04-30T02:02:03;99465.72;;;14.96;69.34
66176;BME280;52977;44.816;20.538;2023-04-30T02:08:22;99487.16;;;15.23;69.38
66176;BME280;52977;44.816;20.538;2023-04-30T02:10:48;99486.41;;;15.26;68.83
66176;BME280;52977;44.816;20.538;2023-04-30T02:13:14;99492.78;;;15.30;68.37
66176;BME280;52977;44.816;20.538;2023-04-30T02:15:39;99466.66;;;15.20;68.56
66176;BME280;52977;44.816;20.538;2023-04-30T02:18:05;99489.78;;;15.35;68.20
66176;BME280;52977;44.816;20.538;2023-04-30T02:20:31;99489.84;;;15.38;68.01
66176;BME280;52977;44.816;20.538;2023-04-30T02:22:56;99482.22;;;15.32;68.52
66176;BME280;52977;44.816;20.538;2023-04-30T02:25:22;99492.06;;;15.33;67.81
66176;BME280;52977;44.816;20.538;2023-04-30T02:27:48;99470.91;;;15.17;67.01
66176;BME280;52977;44.816;20.538;2023-04-30T02:30:14;99489.41;;;15.36;67.43
66176;BME280;52977;44.816;20.538;2023-04-30T02:32:40;99447.44;;;15.04;68.18
66176;BME280;52977;44.816;20.538;2023-04-30T02:35:06;99447.25;;;15.13;68.26
66176;BME280;52977;44.816;20.538;2023-04-30T02:37:32;99487.19;;;15.42;67.87
66176;BME280;52977;44.816;20.538;2023-04-30T02:39:57;99495.56;;;15.49;67.24
66176;BME280;52977;44.816;20.538;2023-04-30T02:42:24;99485.28;;;15.46;66.41
66176;BME280;52977;44.816;20.538;2023-04-30T02:44:49;99483.25;;;15.43;66.67
66176;BME280;52977;44.816;20.538;2023-04-30T02:47:16;99487.56;;;15.25;66.65
66176;BME280;52977;44.816;20.538;2023-04-30T02:49:41;99490.78;;;15.27;66.60
66176;BME280;52977;44.816;20.538;2023-04-30T02:52:07;99498.34;;;15.33;66.79
66176;BME280;52977;44.816;20.538;2023-04-30T02:54:34;99466.00;;;15.07;67.44
66176;BME280;52977;44.816;20.538;2023-04-30T02:57:00;99438.47;;;14.88;67.86
66176;BME280;52977;44.816;20.538;2023-04-30T02:59:26;99500.72;;;15.15;68.93
66176;BME280;52977;44.816;20.538;2023-04-30T03:01:51;99503.69;;;15.26;68.50
66176;BME280;52977;44.816;20.538;2023-04-30T03:04:17;99511.53;;;15.24;69.31
66176;BME280;52977;44.816;20.538;2023-04-30T03:06:43;99501.94;;;15.18;69.30
66176;BME280;52977;44.816;20.538;2023-04-30T03:09:09;99509.03;;;15.19;70.07
66176;BME280;52977;44.816;20.538;2023-04-30T03:11:35;99503.38;;;15.12;70.02
66176;BME280;52977;44.816;20.538;2023-04-30T03:14:02;99388.22;;;14.39;70.35
66176;BME280;52977;44.816;20.538;2023-04-30T03:16:29;99453.97;;;14.80;71.58
66176;BME280;52977;44.816;20.538;2023-04-30T03:18:55;99469.63;;;14.95;70.95
66176;BME280;52977;44.816;20.538;2023-04-30T03:21:21;99491.75;;;15.18;70.06
66176;BME280;52977;44.816;20.538;2023-04-30T03:23:46;99497.41;;;15.26;69.19
66176;BME280;52977;44.816;20.538;2023-04-30T03:26:13;99466.31;;;15.06;68.17
66176;BME280;52977;44.816;20.538;2023-04-30T03:28:39;99512.47;;;15.32;68.47
66176;BME280;52977;44.816;20.538;2023-04-30T03:31:04;99512.78;;;15.27;68.24
66176;BME280;52977;44.816;20.538;2023-04-30T03:33:33;99477.50;;;14.97;68.27
66176;BME280;52977;44.816;20.538;2023-04-30T03:35:59;99506.81;;;15.25;67.75
66176;BME280;52977;44.816;20.538;2023-04-30T03:38:24;99513.47;;;15.24;67.58
66176;BME280;52977;44.816;20.538;2023-04-30T03:40:50;99515.16;;;15.28;67.05
66176;BME280;52977;44.816;20.538;2023-04-30T03:43:16;99496.03;;;15.00;68.06
66176;BME280;52977;44.816;20.538;2023-04-30T03:45:41;99526.59;;;15.30;67.99
66176;BME280;52977;44.816;20.538;2023-04-30T03:48:07;99427.00;;;14.53;67.38
66176;BME280;52977;44.816;20.538;2023-04-30T03:50:33;99472.56;;;14.39;68.81
66176;BME280;52977;44.816;20.538;2023-04-30T03:52:59;99537.88;;;14.61;70.07
66176;BME280;52977;44.816;20.538;2023-04-30T03:55:25;99521.09;;;14.34;72.05
66176;BME280;52977;44.816;20.538;2023-04-30T03:57:52;99553.69;;;14.36;73.62
66176;BME280;52977;44.816;20.538;2023-04-30T04:00:19;99536.31;;;14.04;78.13
66176;BME280;52977;44.816;20.538;2023-04-30T04:02:50;99556.94;;;13.97;83.60
66176;BME280;52977;44.816;20.538;2023-04-30T04:05:15;99552.53;;;14.09;83.84
66176;BME280;52977;44.816;20.538;2023-04-30T04:07:43;99551.38;;;14.38;81.93
66176;BME280;52977;44.816;20.538;2023-04-30T04:10:09;99563.84;;;14.35;82.40
66176;BME280;52977;44.816;20.538;2023-04-30T04:12:35;99554.50;;;14.08;83.75
66176;BME280;52977;44.816;20.538;2023-04-30T04:15:02;99570.41;;;14.31;82.19
66176;BME280;52977;44.816;20.538;2023-04-30T04:17:28;99568.31;;;14.40;81.24
66176;BME280;52977;44.816;20.538;2023-04-30T04:19:55;99583.44;;;14.62;78.74
66176;BME280;52977;44.816;20.538;2023-04-30T04:22:21;99582.78;;;14.53;78.16
66176;BME280;52977;44.816;20.538;2023-04-30T04:24:48;99582.41;;;14.39;79.95
66176;BME280;52977;44.816;20.538;2023-04-30T04:27:18;99548.44;;;14.31;79.44
66176;BME280;52977;44.816;20.538;2023-04-30T04:29:44;99578.50;;;14.68;78.04
66176;BME280;52977;44.816;20.538;2023-04-30T04:32:11;99561.56;;;14.66;76.84
66176;BME280;52977;44.816;20.538;2023-04-30T04:34:39;99588.41;;;14.89;75.57
66176;BME280;52977;44.816;20.538;2023-04-30T04:37:04;99586.19;;;14.94;73.81
66176;BME280;52977;44.816;20.538;2023-04-30T04:39:30;99586.72;;;15.00;73.45
66176;BME280;52977;44.816;20.538;2023-04-30T04:41:55;99583.66;;;14.57;75.37
66176;BME280;52977;44.816;20.538;2023-04-30T04:44:23;99590.31;;;14.56;76.87
66176;BME280;52977;44.816;20.538;2023-04-30T04:46:50;99600.81;;;14.66;76.08
66176;BME280;52977;44.816;20.538;2023-04-30T04:49:19;99615.44;;;14.14;80.50
66176;BME280;52977;44.816;20.538;2023-04-30T04:51:45;99607.88;;;13.70;86.02
66176;BME280;52977;44.816;20.538;2023-04-30T04:54:12;99614.16;;;13.83;89.30
66176;BME280;52977;44.816;20.538;2023-04-30T04:56:38;99560.41;;;13.82;87.48
66176;BME280;52977;44.816;20.538;2023-04-30T04:59:04;99625.31;;;14.31;85.96
66176;BME280;52977;44.816;20.538;2023-04-30T05:01:30;99607.25;;;14.30;84.55
66176;BME280;52977;44.816;20.538;2023-04-30T05:03:56;99620.16;;;14.58;84.39
66176;BME280;52977;44.816;20.538;2023-04-30T05:06:22;99627.13;;;14.67;83.33
66176;BME280;52977;44.816;20.538;2023-04-30T05:08:48;99558.00;;;14.37;83.08
66176;BME280;52977;44.816;20.538;2023-04-30T05:11:14;99603.91;;;14.65;82.15
66176;BME280;52977;44.816;20.538;2023-04-30T05:13:41;99621.28;;;14.69;80.19
66176;BME280;52977;44.816;20.538;2023-04-30T05:16:07;99623.63;;;14.55;81.19
66176;BME280;52977;44.816;20.538;2023-04-30T05:18:33;99621.28;;;14.69;80.73
66176;BME280;52977;44.816;20.538;2023-04-30T05:20:59;99628.31;;;14.82;79.66
66176;BME280;52977;44.816;20.538;2023-04-30T05:23:25;99620.16;;;14.86;79.61
66176;BME280;52977;44.816;20.538;2023-04-30T05:25:53;99612.91;;;14.94;79.59
66176;BME280;52977;44.816;20.538;2023-04-30T05:28:20;99617.31;;;14.82;77.22
66176;BME280;52977;44.816;20.538;2023-04-30T05:30:46;99619.59;;;14.80;78.32
66176;BME280;52977;44.816;20.538;2023-04-30T05:33:12;99628.25;;;14.95;78.53
66176;BME280;52977;44.816;20.538;2023-04-30T05:35:38;99632.75;;;14.59;77.73
66176;BME280;52977;44.816;20.538;2023-04-30T05:38:04;99641.41;;;14.73;77.15
66176;BME280;52977;44.816;20.538;2023-04-30T05:40:30;99639.31;;;14.82;76.63
66176;BME280;52977;44.816;20.538;2023-04-30T05:42:57;99628.50;;;14.74;76.15
66176;BME280;52977;44.816;20.538;2023-04-30T05:45:23;99638.84;;;14.80;76.10
66176;BME280;52977;44.816;20.538;2023-04-30T05:47:49;99647.09;;;14.80;76.36
66176;BME280;52977;44.816;20.538;2023-04-30T05:50:14;99651.28;;;14.62;79.67
66176;BME280;52977;44.816;20.538;2023-04-30T05:52:40;99602.66;;;14.34;79.63
66176;BME280;52977;44.816;20.538;2023-04-30T05:55:06;99648.44;;;14.86;75.42
66176;BME280;52977;44.816;20.538;2023-04-30T05:57:32;99655.53;;;14.88;74.58
66176;BME280;52977;44.816;20.538;2023-04-30T06:00:00;99653.47;;;14.84;71.64
66176;BME280;52977;44.816;20.538;2023-04-30T06:02:26;99657.28;;;14.80;71.52
66176;BME280;52977;44.816;20.538;2023-04-30T06:04:52;99673.38;;;14.94;71.26
66176;BME280;52977;44.816;20.538;2023-04-30T06:07:18;99611.09;;;14.69;70.59
66176;BME280;52977;44.816;20.538;2023-04-30T06:09:44;99666.84;;;15.14;69.60
66176;BME280;52977;44.816;20.538;2023-04-30T06:12:10;99639.59;;;15.09;68.56
66176;BME280;52977;44.816;20.538;2023-04-30T06:14:36;99658.94;;;15.29;68.63
66176;BME280;52977;44.816;20.538;2023-04-30T06:17:02;99659.66;;;15.26;68.38
66176;BME280;52977;44.816;20.538;2023-04-30T06:19:29;99659.81;;;15.33;68.64
66176;BME280;52977;44.816;20.538;2023-04-30T06:21:55;99669.50;;;15.43;68.26
66176;BME280;52977;44.816;20.538;2023-04-30T06:24:21;99671.44;;;15.42;67.96
66176;BME280;52977;44.816;20.538;2023-04-30T06:26:47;99638.44;;;15.26;67.54
66176;BME280;52977;44.816;20.538;2023-04-30T06:29:13;99671.97;;;15.48;69.57
66176;BME280;52977;44.816;20.538;2023-04-30T06:31:38;99668.97;;;15.37;70.62
66176;BME280;52977;44.816;20.538;2023-04-30T06:34:04;99678.97;;;15.29;71.54
66176;BME280;52977;44.816;20.538;2023-04-30T06:36:30;99691.72;;;15.06;72.67
66176;BME280;52977;44.816;20.538;2023-04-30T06:38:55;99650.38;;;14.86;72.97
66176;BME280;52977;44.816;20.538;2023-04-30T06:41:22;99675.75;;;14.95;73.01
66176;BME280;52977;44.816;20.538;2023-04-30T06:43:47;99684.91;;;14.99;73.02
66176;BME280;52977;44.816;20.538;2023-04-30T06:46:13;99686.22;;;14.90;72.93
66176;BME280;52977;44.816;20.538;2023-04-30T06:48:39;99684.59;;;14.89;73.09
66176;BME280;52977;44.816;20.538;2023-04-30T06:51:04;99606.06;;;14.43;72.95
66176;BME280;52977;44.816;20.538;2023-04-30T06:53:30;99686.22;;;15.06;73.02
66176;BME280;52977;44.816;20.538;2023-04-30T06:55:56;99665.53;;;14.80;73.08
66176;BME280;52977;44.816;20.538;2023-04-30T06:58:22;99645.66;;;14.70;71.80
66176;BME280;52977;44.816;20.538;2023-04-30T07:00:48;99646.53;;;14.75;71.06
66176;BME280;52977;44.816;20.538;2023-04-30T07:03:14;99615.50;;;14.58;69.63
66176;BME280;52977;44.816;20.538;2023-04-30T07:05:40;99672.75;;;15.00;69.07
66176;BME280;52977;44.816;20.538;2023-04-30T07:08:07;99688.66;;;15.07;70.01
66176;BME280;52977;44.816;20.538;2023-04-30T07:10:33;99637.34;;;14.83;70.57
66176;BME280;52977;44.816;20.538;2023-04-30T07:12:59;99686.44;;;15.13;70.53
66176;BME280;52977;44.816;20.538;2023-04-30T07:15:25;99687.41;;;15.20;69.54
66176;BME280;52977;44.816;20.538;2023-04-30T07:17:51;99693.34;;;15.23;70.07
66176;BME280;52977;44.816;20.538;2023-04-30T07:20:17;99684.41;;;15.26;69.11
66176;BME280;52977;44.816;20.538;2023-04-30T07:22:43;99683.31;;;15.30;69.12
66176;BME280;52977;44.816;20.538;2023-04-30T07:25:14;99618.41;;;14.94;67.69
66176;BME280;52977;44.816;20.538;2023-04-30T07:27:40;99702.41;;;15.55;67.57
66176;BME280;52977;44.816;20.538;2023-04-30T07:30:07;99693.78;;;15.57;68.84
66176;BME280;52977;44.816;20.538;2023-04-30T07:32:37;99694.13;;;15.71;68.01
66176;BME280;52977;44.816;20.538;2023-04-30T07:35:05;99694.88;;;15.84;67.48
66176;BME280;52977;44.816;20.538;2023-04-30T07:37:31;99648.91;;;15.52;67.65
66176;BME280;52977;44.816;20.538;2023-04-30T07:39:57;99694.56;;;15.89;66.59
66176;BME280;52977;44.816;20.538;2023-04-30T07:42:22;99694.81;;;16.00;65.64
66176;BME280;52977;44.816;20.538;2023-04-30T07:44:49;99686.94;;;15.98;65.11
66176;BME280;52977;44.816;20.538;2023-04-30T07:47:15;99688.97;;;16.01;65.12
66176;BME280;52977;44.816;20.538;2023-04-30T07:49:42;99702.19;;;16.12;64.63
66176;BME280;52977;44.816;20.538;2023-04-30T07:52:08;99649.28;;;15.86;64.25
66176;BME280;52977;44.816;20.538;2023-04-30T07:54:37;99678.47;;;16.07;65.06
66176;BME280;52977;44.816;20.538;2023-04-30T07:57:05;99649.28;;;15.86;65.44
66176;BME280;52977;44.816;20.538;2023-04-30T07:59:32;99633.78;;;15.78;66.15
66176;BME280;52977;44.816;20.538;2023-04-30T08:02:00;99700.00;;;16.21;66.21
66176;BME280;52977;44.816;20.538;2023-04-30T08:04:25;99708.22;;;16.17;66.66
66176;BME280;52977;44.816;20.538;2023-04-30T08:06:51;99701.59;;;16.22;65.82
66176;BME280;52977;44.816;20.538;2023-04-30T08:09:17;99651.41;;;15.93;64.16
66176;BME280;52977;44.816;20.538;2023-04-30T08:11:42;99686.19;;;16.17;64.51
66176;BME280;52977;44.816;20.538;2023-04-30T08:14:08;99638.41;;;15.74;64.97
66176;BME280;52977;44.816;20.538;2023-04-30T08:16:34;99665.84;;;16.06;64.41
66176;BME280;52977;44.816;20.538;2023-04-30T08:19:00;99663.41;;;16.01;63.76
66176;BME280;52977;44.816;20.538;2023-04-30T08:21:26;99668.59;;;16.06;63.54
66176;BME280;52977;44.816;20.538;2023-04-30T08:23:53;99654.97;;;15.94;64.02
66176;BME280;52977;44.816;20.538;2023-04-30T08:26:19;99697.97;;;16.18;64.23
66176;BME280;52977;44.816;20.538;2023-04-30T08:28:46;99690.34;;;16.11;65.15
66176;BME280;52977;44.816;20.538;2023-04-30T08:31:12;99715.88;;;16.28;65.18
66176;BME280;52977;44.816;20.538;2023-04-30T08:33:38;99705.75;;;16.32;65.48
66176;BME280;52977;44.816;20.538;2023-04-30T08:36:05;99715.13;;;16.47;64.86
66176;BME280;52977;44.816;20.538;2023-04-30T08:38:31;99707.66;;;16.47;65.20
66176;BME280;52977;44.816;20.538;2023-04-30T08:41:07;99709.16;;;16.45;66.00
66176;BME280;52977;44.816;20.538;2023-04-30T08:43:34;99717.66;;;16.55;66.58
66176;BME280;52977;44.816;20.538;2023-04-30T08:45:59;99684.81;;;16.47;65.77
66176;BME280;52977;44.816;20.538;2023-04-30T08:48:26;99706.63;;;16.75;64.83
66176;BME280;52977;44.816;20.538;2023-04-30T08:50:52;99674.94;;;16.65;65.22
66176;BME280;52977;44.816;20.538;2023-04-30T08:53:18;99682.94;;;16.70;65.08
66176;BME280;52977;44.816;20.538;2023-04-30T08:55:46;99708.53;;;16.90;66.28
66176;BME280;52977;44.816;20.538;2023-04-30T08:58:13;99691.19;;;16.90;65.21
66176;BME280;52977;44.816;20.538;2023-04-30T09:00:39;99684.66;;;16.98;64.88
66176;BME280;52977;44.816;20.538;2023-04-30T09:03:06;99681.47;;;16.96;64.52
66176;BME280;52977;44.816;20.538;2023-04-30T09:05:33;99708.50;;;17.10;64.76
66176;BME280;52977;44.816;20.538;2023-04-30T09:07:59;99661.91;;;16.85;63.59
66176;BME280;52977;44.816;20.538;2023-04-30T09:10:31;99712.13;;;17.14;64.08
66176;BME280;52977;44.816;20.538;2023-04-30T09:13:02;99707.88;;;17.20;63.71
66176;BME280;52977;44.816;20.538;2023-04-30T09:15:30;99705.81;;;17.37;62.79
66176;BME280;52977;44.816;20.538;2023-04-30T09:18:06;99696.50;;;17.45;61.10
66176;BME280;52977;44.816;20.538;2023-04-30T09:20:33;99687.06;;;17.46;60.34
66176;BME280;52977;44.816;20.538;2023-04-30T09:23:10;99613.84;;;17.02;59.86
66176;BME280;52977;44.816;20.538;2023-04-30T09:25:38;99695.19;;;17.62;60.32
66176;BME280;52977;44.816;20.538;2023-04-30T09:28:09;99620.81;;;17.19;59.67
66176;BME280;52977;44.816;20.538;2023-04-30T09:30:38;99690.63;;;17.73;60.31
66176;BME280;52977;44.816;20.538;2023-04-30T09:33:04;99678.81;;;17.50;59.02
66176;BME280;52977;44.816;20.538;2023-04-30T09:35:32;99682.88;;;17.56;59.75
66176;BME280;52977;44.816;20.538;2023-04-30T09:38:00;99686.13;;;17.38;59.41
66176;BME280;52977;44.816;20.538;2023-04-30T09:40:45;99679.06;;;17.41;58.99
66176;BME280;52977;44.816;20.538;2023-04-30T09:43:12;99627.84;;;17.17;59.47
66176;BME280;52977;44.816;20.538;2023-04-30T09:45:46;99648.78;;;17.45;59.46
66176;BME280;52977;44.816;20.538;2023-04-30T09:48:31;99673.16;;;17.66;58.84
66176;BME280;52977;44.816;20.538;2023-04-30T09:50:57;99679.22;;;17.75;59.15
66176;BME280;52977;44.816;20.538;2023-04-30T09:53:23;99677.47;;;17.90;58.55
66176;BME280;52977;44.816;20.538;2023-04-30T09:55:50;99682.25;;;17.93;58.83
66176;BME280;52977;44.816;20.538;2023-04-30T09:58:17;99685.03;;;17.93;58.35
66176;BME280;52977;44.816;20.538;2023-04-30T10:00:45;99672.97;;;17.78;58.75
66176;BME280;52977;44.816;20.538;2023-04-30T10:03:13;99665.16;;;17.84;58.59
66176;BME280;52977;44.816;20.538;2023-04-30T10:05:42;99675.66;;;18.01;58.86
66176;BME280;52977;44.816;20.538;2023-04-30T10:10:46;99663.19;;;18.11;58.48
66176;BME280;52977;44.816;20.538;2023-04-30T10:13:18;99668.44;;;18.20;58.86
66176;BME280;52977;44.816;20.538;2023-04-30T10:15:49;99665.38;;;18.28;58.30
66176;BME280;52977;44.816;20.538;2023-04-30T10:18:18;99661.31;;;18.19;57.18
66176;BME280;52977;44.816;20.538;2023-04-30T10:20:46;99609.88;;;17.80;58.23
66176;BME280;52977;44.816;20.538;2023-04-30T10:23:14;99661.13;;;18.04;58.58
66176;BME280;52977;44.816;20.538;2023-04-30T10:25:40;99663.09;;;18.04;58.27
66176;BME280;52977;44.816;20.538;2023-04-30T10:28:09;99549.69;;;17.32;58.49
66176;BME280;52977;44.816;20.538;2023-04-30T10:30:35;99635.19;;;17.86;58.51
66176;BME280;52977;44.816;20.538;2023-04-30T10:36:02;99648.28;;;18.19;59.14
66176;BME280;52977;44.816;20.538;2023-04-30T10:38:28;99610.06;;;17.91;59.19
66176;BME280;52977;44.816;20.538;2023-04-30T10:40:56;99646.94;;;18.06;58.45
66176;BME280;52977;44.816;20.538;2023-04-30T10:43:29;99646.13;;;18.05;58.64
66176;BME280;52977;44.816;20.538;2023-04-30T10:45:56;99640.34;;;18.14;57.77
66176;BME280;52977;44.816;20.538;2023-04-30T10:48:44;99568.81;;;17.75;58.35
66176;BME280;52977;44.816;20.538;2023-04-30T10:51:11;99633.03;;;18.29;58.14
66176;BME280;52977;44.816;20.538;2023-04-30T10:53:37;99628.63;;;18.24;58.69
66176;BME280;52977;44.816;20.538;2023-04-30T10:56:05;99622.88;;;18.40;59.04
66176;BME280;52977;44.816;20.538;2023-04-30T10:58:35;99617.84;;;18.46;57.23
66176;BME280;52977;44.816;20.538;2023-04-30T11:03:34;99614.13;;;18.31;57.79
66176;BME280;52977;44.816;20.538;2023-04-30T11:06:07;99575.53;;;18.04;58.61
66176;BME280;52977;44.816;20.538;2023-04-30T11:08:36;99608.88;;;18.22;59.15
66176;BME280;52977;44.816;20.538;2023-04-30T11:11:03;99610.84;;;18.22;58.88
66176;BME280;52977;44.816;20.538;2023-04-30T11:13:47;99527.47;;;17.52;60.28
66176;BME280;52977;44.816;20.538;2023-04-30T11:16:17;99592.91;;;17.78;60.61
66176;BME280;52977;44.816;20.538;2023-04-30T11:18:45;99613.38;;;17.77;61.30
66176;BME280;52977;44.816;20.538;2023-04-30T11:21:12;99618.91;;;17.77;61.91
66176;BME280;52977;44.816;20.538;2023-04-30T11:23:42;99608.19;;;17.72;61.76
66176;BME280;52977;44.816;20.538;2023-04-30T11:26:09;99678.03;;;17.76;71.99
66176;BME280;52977;44.816;20.538;2023-04-30T11:28:36;99666.63;;;17.51;81.57
66176;BME280;52977;44.816;20.538;2023-04-30T11:31:03;99679.38;;;16.50;85.03
66176;BME280;52977;44.816;20.538;2023-04-30T11:33:30;99680.19;;;16.31;86.18
66176;BME280;52977;44.816;20.538;2023-04-30T11:35:58;99653.13;;;16.37;82.62
66176;BME280;52977;44.816;20.538;2023-04-30T11:38:30;99579.56;;;15.98;89.69
66176;BME280;52977;44.816;20.538;2023-04-30T11:41:00;99599.41;;;15.72;96.82
66176;BME280;52977;44.816;20.538;2023-04-30T11:43:28;99636.88;;;16.12;100.00
66176;BME280;52977;44.816;20.538;2023-04-30T11:46:05;99638.63;;;16.20;97.68
66176;BME280;52977;44.816;20.538;2023-04-30T11:48:33;99598.75;;;15.95;100.00
66176;BME280;52977;44.816;20.538;2023-04-30T11:51:16;99660.91;;;16.31;100.00
66176;BME280;52977;44.816;20.538;2023-04-30T11:53:48;99582.81;;;15.84;100.00
66176;BME280;52977;44.816;20.538;2023-04-30T11:56:22;99659.44;;;16.37;100.00
66176;BME280;52977;44.816;20.538;2023-04-30T11:58:50;99662.28;;;16.41;100.00
66176;BME280;52977;44.816;20.538;2023-04-30T12:01:17;99644.94;;;16.40;100.00
66176;BME280;52977;44.816;20.538;2023-04-30T12:03:51;99601.22;;;16.19;100.00
66176;BME280;52977;44.816;20.538;2023-04-30T12:06:21;99643.19;;;16.52;100.00
66176;BME280;52977;44.816;20.538;2023-04-30T12:08:48;99602.97;;;16.28;100.00
66176;BME280;52977;44.816;20.538;2023-04-30T12:11:40;99640.94;;;16.57;100.00
66176;BME280;52977;44.816;20.538;2023-04-30T12:14:08;99626.59;;;16.48;100.00
66176;BME280;52977;44.816;20.538;2023-04-30T12:16:42;99635.41;;;16.57;100.00
66176;BME280;52977;44.816;20.538;2023-04-30T12:19:10;99632.66;;;16.57;100.00
66176;BME280;52977;44.816;20.538;2023-04-30T12:21:37;99611.59;;;16.46;100.00
66176;BME280;52977;44.816;20.538;2023-04-30T12:24:05;99401.81;;;15.19;100.00
66176;BME280;52977;44.816;20.538;2023-04-30T12:26:38;99597.06;;;16.49;100.00
66176;BME280;52977;44.816;20.538;2023-04-30T12:29:17;99606.03;;;16.65;100.00
66176;BME280;52977;44.816;20.538;2023-04-30T12:31:44;99619.53;;;16.70;100.00
66176;BME280;52977;44.816;20.538;2023-04-30T12:34:13;99583.50;;;16.83;100.00
66176;BME280;52977;44.816;20.538;2023-04-30T12:36:40;99607.59;;;17.32;100.00
66176;BME280;52977;44.816;20.538;2023-04-30T12:39:12;99569.09;;;17.39;100.00
66176;BME280;52977;44.816;20.538;2023-04-30T12:41:43;99564.22;;;17.59;100.00
66176;BME280;52977;44.816;20.538;2023-04-30T12:44:19;99604.38;;;18.10;100.00
66176;BME280;52977;44.816;20.538;2023-04-30T12:46:46;99597.56;;;18.01;93.46
66176;BME280;52977;44.816;20.538;2023-04-30T12:49:27;99601.06;;;18.28;91.66
66176;BME280;52977;44.816;20.538;2023-04-30T12:52:10;99582.97;;;18.34;91.80
66176;BME280;52977;44.816;20.538;2023-04-30T12:54:37;99579.22;;;18.53;90.24
66176;BME280;52977;44.816;20.538;2023-04-30T12:57:11;99575.44;;;18.72;83.63
66176;BME280;52977;44.816;20.538;2023-04-30T12:59:39;99572.47;;;18.88;79.31
66176;BME280;52977;44.816;20.538;2023-04-30T13:02:06;99523.75;;;18.76;76.43
66176;BME280;52977;44.816;20.538;2023-04-30T13:04:33;99556.88;;;19.14;76.50
66176;BME280;52977;44.816;20.538;2023-04-30T13:07:05;99556.16;;;19.24;73.17
66176;BME280;52977;44.816;20.538;2023-04-30T13:09:33;99519.38;;;18.72;73.71
66176;BME280;52977;44.816;20.538;2023-04-30T13:11:59;99563.06;;;19.00;75.02